createdAt,value
2022-10-08T00:00:32.152Z,7.07
2022-10-08T00:01:29.027Z,9.73
2022-10-08T00:02:27.427Z,9.75
2022-10-08T00:03:27.087Z,8.98
2022-10-08T00:04:23.696Z,8.68
2022-10-08T00:05:20.415Z,9.63
2022-10-08T00:06:25.900Z,9.10
2022-10-08T00:07:22.549Z,7.50
2022-10-08T00:08:19.165Z,11.30
2022-10-08T00:09:15.737Z,6.97
2022-10-08T00:10:12.351Z,9.77
2022-10-08T00:11:21.777Z,7.55
2022-10-08T00:12:18.468Z,10.10
2022-10-08T00:13:15.028Z,8.75
2022-10-08T00:14:11.661Z,8.13
2022-10-08T00:15:08.745Z,8.10
2022-10-08T00:16:05.604Z,7.70
2022-10-08T00:17:02.255Z,11.00
2022-10-08T00:17:58.850Z,14.50
2022-10-08T00:18:59.092Z,9.95
2022-10-08T00:19:57.531Z,12.57
2022-10-08T00:21:04.918Z,14.50
2022-10-08T00:22:01.641Z,13.95
2022-10-08T00:22:58.319Z,10.57
2022-10-08T00:23:55.086Z,12.20
2022-10-08T00:24:53.504Z,11.57
2022-10-08T00:25:50.059Z,7.75
2022-10-08T00:26:46.719Z,10.27
2022-10-08T00:27:43.352Z,9.50
2022-10-08T00:28:45.234Z,12.20
2022-10-08T00:29:44.737Z,8.55
2022-10-08T00:30:41.704Z,11.27
2022-10-08T00:31:41.020Z,11.20
2022-10-08T00:32:37.703Z,13.27
2022-10-08T00:33:36.252Z,11.40
2022-10-08T00:34:33.083Z,10.52
2022-10-08T00:35:29.640Z,6.47
2022-10-08T00:36:28.906Z,13.57
2022-10-08T00:37:26.758Z,6.85
2022-10-08T00:38:23.334Z,10.30
2022-10-08T00:39:22.370Z,6.28
2022-10-08T00:40:18.951Z,7.30
2022-10-08T00:41:27.241Z,7.88
2022-10-08T00:42:24.786Z,6.28
2022-10-08T00:43:40.915Z,5.20
2022-10-08T00:44:47.284Z,9.25
2022-10-08T00:45:47.016Z,10.45
2022-10-08T00:46:49.360Z,7.60
2022-10-08T00:47:48.980Z,7.47
2022-10-08T00:48:46.280Z,5.93
2022-10-08T00:49:43.058Z,7.35
2022-10-08T00:50:39.884Z,9.27
2022-10-08T00:51:37.192Z,5.40
2022-10-08T00:52:36.215Z,7.88
2022-10-08T00:53:34.492Z,6.35
2022-10-08T00:54:32.601Z,9.48
2022-10-08T00:55:30.366Z,7.93
2022-10-08T00:56:27.288Z,6.13
2022-10-08T00:57:24.402Z,9.75
2022-10-08T00:58:23.058Z,5.93
2022-10-08T00:59:20.770Z,9.65
2022-10-08T01:00:21.323Z,14.50
2022-10-08T01:01:18.262Z,13.52
2022-10-08T01:02:15.215Z,12.65
2022-10-08T01:03:11.873Z,13.15
2022-10-08T01:04:09.788Z,12.77
2022-10-08T01:05:07.615Z,13.98
2022-10-08T01:06:25.553Z,10.60
2022-10-08T01:07:36.441Z,8.50
2022-10-08T01:08:45.023Z,9.20
2022-10-08T01:09:49.853Z,12.75
2022-10-08T01:10:58.681Z,9.60
2022-10-08T01:12:23.126Z,12.50
2022-10-08T01:13:30.348Z,8.88
2022-10-08T01:14:45.487Z,8.77
2022-10-08T01:15:54.981Z,10.20
2022-10-08T01:17:22.479Z,9.90
2022-10-08T01:18:32.538Z,9.20
2022-10-08T01:19:44.016Z,10.23
2022-10-08T01:20:52.518Z,11.70
2022-10-08T01:22:01.294Z,9.98
2022-10-08T01:22:57.819Z,17.05
2022-10-08T01:24:09.350Z,13.55
2022-10-08T01:25:30.496Z,9.48
2022-10-08T01:26:45.967Z,6.80
2022-10-08T01:27:46.203Z,9.73
2022-10-08T01:28:49.804Z,10.02
2022-10-08T01:29:48.959Z,4.63
2022-10-08T01:31:01.299Z,8.35
2022-10-08T01:32:09.777Z,5.75
2022-10-08T01:33:13.855Z,11.38
2022-10-08T01:34:27.041Z,6.47
2022-10-08T01:36:28.863Z,8.45
2022-10-08T01:37:38.684Z,14.43
2022-10-08T01:38:42.117Z,9.88
2022-10-08T01:39:40.875Z,11.20
2022-10-08T01:40:41.521Z,9.85
2022-10-08T01:41:40.988Z,11.13
2022-10-08T01:42:41.067Z,12.13
2022-10-08T01:43:43.525Z,15.93
2022-10-08T01:45:54.790Z,10.10
2022-10-08T01:46:56.980Z,12.45
2022-10-08T01:47:56.169Z,12.48
2022-10-08T01:48:56.578Z,13.93
2022-10-08T01:50:05.600Z,10.65
2022-10-08T01:51:13.997Z,17.65
2022-10-08T01:52:17.647Z,11.80
2022-10-08T01:53:17.867Z,14.77
2022-10-08T01:54:17.396Z,13.48
2022-10-08T01:55:21.867Z,9.48
2022-10-08T01:56:23.343Z,11.40
2022-10-08T01:57:21.225Z,10.00
2022-10-08T01:58:33.982Z,8.65
2022-10-08T01:59:37.129Z,7.70
2022-10-08T02:00:37.582Z,11.73
2022-10-08T02:01:56.391Z,10.93
2022-10-08T02:02:55.364Z,6.78
2022-10-08T02:04:10.947Z,9.13
2022-10-08T02:05:08.384Z,7.80
2022-10-08T02:06:07.033Z,13.52
2022-10-08T02:07:08.765Z,7.03
2022-10-08T02:08:05.473Z,14.45
2022-10-08T02:09:03.019Z,17.17
2022-10-08T02:10:07.723Z,11.82
2022-10-08T02:11:04.331Z,12.63
2022-10-08T02:12:01.713Z,13.73
2022-10-08T02:12:58.782Z,8.90
2022-10-08T02:13:55.888Z,9.93
2022-10-08T02:14:56.913Z,7.85
2022-10-08T02:15:58.926Z,11.05
2022-10-08T02:17:02.574Z,8.95
2022-10-08T02:18:18.300Z,5.05
2022-10-08T02:19:46.958Z,8.20
2022-10-08T02:21:14.688Z,9.50
2022-10-08T02:22:17.053Z,10.82
2022-10-08T02:23:21.523Z,9.15
2022-10-08T02:24:21.476Z,8.45
2022-10-08T02:25:44.112Z,11.77
2022-10-08T02:26:47.319Z,16.42
2022-10-08T02:28:05.392Z,8.15
2022-10-08T02:29:29.091Z,9.63
2022-10-08T02:30:30.709Z,6.63
2022-10-08T02:31:33.188Z,11.60
2022-10-08T02:34:02.390Z,13.40
2022-10-08T02:35:07.767Z,11.15
2022-10-08T02:36:08.586Z,12.65
2022-10-08T02:37:13.171Z,9.57
2022-10-08T02:38:18.987Z,11.20
2022-10-08T02:39:16.812Z,10.38
2022-10-08T02:40:16.910Z,11.05
2022-10-08T02:41:18.886Z,20.10
2022-10-08T02:42:21.995Z,13.63
2022-10-08T02:43:25.337Z,13.52
2022-10-08T02:44:35.183Z,12.00
2022-10-08T02:45:43.595Z,11.85
2022-10-08T02:46:44.260Z,10.90
2022-10-08T02:47:43.425Z,9.27
2022-10-08T02:48:44.235Z,8.00
2022-10-08T02:49:45.215Z,12.90
2022-10-08T02:50:44.449Z,10.73
2022-10-08T02:51:45.493Z,9.55
2022-10-08T02:52:45.240Z,9.40
2022-10-08T02:53:42.578Z,14.48
2022-10-08T02:54:42.292Z,15.32
2022-10-08T02:55:54.841Z,11.75
2022-10-08T02:56:51.390Z,18.45
2022-10-08T02:58:00.942Z,12.65
2022-10-08T02:58:58.102Z,11.30
2022-10-08T02:59:55.710Z,14.52
2022-10-08T03:01:32.969Z,17.42
2022-10-08T03:02:37.555Z,17.20
2022-10-08T03:03:55.243Z,13.30
2022-10-08T03:04:59.418Z,11.10
2022-10-08T03:05:57.241Z,15.68
2022-10-08T03:06:55.091Z,11.77
2022-10-08T03:07:54.633Z,15.65
2022-10-08T03:08:52.629Z,11.00
2022-10-08T03:09:52.251Z,12.15
2022-10-08T03:10:49.922Z,8.73
2022-10-08T03:11:47.156Z,12.57
2022-10-08T03:12:43.985Z,8.02
2022-10-08T03:13:44.406Z,12.35
2022-10-08T03:14:43.726Z,14.80
2022-10-08T03:15:41.371Z,16.45
2022-10-08T03:16:41.087Z,15.15
2022-10-08T03:17:44.924Z,11.48
2022-10-08T03:18:42.499Z,9.73
2022-10-08T03:19:39.104Z,11.30
2022-10-08T03:20:44.994Z,11.48
2022-10-08T03:21:43.841Z,19.77
2022-10-08T03:22:40.670Z,15.15
2022-10-08T03:23:37.260Z,9.70
2022-10-08T03:24:35.504Z,10.57
2022-10-08T03:25:32.081Z,13.38
2022-10-08T03:26:28.666Z,7.72
2022-10-08T03:27:25.545Z,12.88
2022-10-08T03:28:22.132Z,15.93
2022-10-08T03:29:18.853Z,13.80
2022-10-08T03:30:15.534Z,13.90
2022-10-08T03:31:12.149Z,13.98
2022-10-08T03:32:08.909Z,11.20
2022-10-08T03:33:05.541Z,17.42
2022-10-08T03:34:02.128Z,13.48
2022-10-08T03:34:58.686Z,9.77
2022-10-08T03:35:55.269Z,8.52
2022-10-08T03:36:51.878Z,15.30
2022-10-08T03:37:48.455Z,14.43
2022-10-08T03:38:45.083Z,15.85
2022-10-08T03:39:43.175Z,16.20
2022-10-08T03:40:39.744Z,13.68
2022-10-08T03:41:36.683Z,9.95
2022-10-08T03:42:33.292Z,13.45
2022-10-08T03:43:33.884Z,11.57
2022-10-08T03:44:30.446Z,12.95
2022-10-08T03:45:26.989Z,18.50
2022-10-08T03:46:23.598Z,8.23
2022-10-08T03:47:20.387Z,10.65
2022-10-08T03:48:18.477Z,6.72
2022-10-08T03:49:15.196Z,7.40
2022-10-08T03:50:11.784Z,7.55
2022-10-08T03:51:12.644Z,9.63
2022-10-08T03:52:09.257Z,9.88
2022-10-08T03:53:05.803Z,12.40
2022-10-08T03:54:02.377Z,10.80
2022-10-08T03:54:58.976Z,9.48
2022-10-08T03:55:55.531Z,9.93
2022-10-08T03:56:52.068Z,8.95
2022-10-08T03:57:48.684Z,6.55
2022-10-08T03:58:45.839Z,9.02
2022-10-08T03:59:42.484Z,11.35
2022-10-08T04:00:39.339Z,11.95
2022-10-08T04:01:35.929Z,11.70
2022-10-08T04:02:32.721Z,6.90
2022-10-08T04:03:29.915Z,6.80
2022-10-08T04:04:26.480Z,6.53
2022-10-08T04:05:23.054Z,11.52
2022-10-08T04:06:20.211Z,14.07
2022-10-08T04:07:16.768Z,12.18
2022-10-08T04:08:13.353Z,13.02
2022-10-08T04:09:10.858Z,10.88
2022-10-08T04:10:08.244Z,11.82
2022-10-08T04:11:07.150Z,12.07
2022-10-08T04:12:03.940Z,8.43
2022-10-08T04:13:00.505Z,10.95
2022-10-08T04:13:57.068Z,8.07
2022-10-08T04:14:53.666Z,8.32
2022-10-08T04:15:50.939Z,8.20
2022-10-08T04:16:48.267Z,12.20
2022-10-08T04:17:44.819Z,13.40
2022-10-08T04:18:42.369Z,19.52
2022-10-08T04:19:38.916Z,17.55
2022-10-08T04:20:35.490Z,19.25
2022-10-08T04:21:32.097Z,13.07
2022-10-08T04:22:28.631Z,12.63
2022-10-08T04:23:25.546Z,13.77
2022-10-08T04:24:22.151Z,17.33
2022-10-08T04:25:18.712Z,12.63
2022-10-08T04:26:15.570Z,14.85
2022-10-08T04:27:12.133Z,10.25
2022-10-08T04:28:08.719Z,9.55
2022-10-08T04:29:05.435Z,11.40
2022-10-08T04:30:01.982Z,15.27
2022-10-08T04:31:04.953Z,13.43
2022-10-08T04:32:01.553Z,16.25
2022-10-08T04:32:58.736Z,11.75
2022-10-08T04:33:55.290Z,12.00
2022-10-08T04:34:51.833Z,15.00
2022-10-08T04:35:48.445Z,18.25
2022-10-08T04:36:44.992Z,19.20
2022-10-08T04:37:41.608Z,17.05
2022-10-08T04:38:38.305Z,15.40
2022-10-08T04:39:34.932Z,12.32
2022-10-08T04:40:31.528Z,17.95
2022-10-08T04:41:28.114Z,15.13
2022-10-08T04:42:24.677Z,18.85
2022-10-08T04:43:22.197Z,16.08
2022-10-08T04:44:18.798Z,16.58
2022-10-08T04:45:15.663Z,16.40
2022-10-08T04:46:15.073Z,20.38
2022-10-08T04:47:11.700Z,15.07
2022-10-08T04:48:08.300Z,18.20
2022-10-08T04:49:04.866Z,16.92
2022-10-08T04:50:01.487Z,13.40
2022-10-08T04:51:00.785Z,10.10
2022-10-08T04:51:57.348Z,11.05
2022-10-08T04:52:53.957Z,10.25
2022-10-08T04:53:51.256Z,11.50
2022-10-08T04:54:47.928Z,7.53
2022-10-08T04:55:44.561Z,14.30
2022-10-08T04:56:41.128Z,11.80
2022-10-08T04:57:38.144Z,12.45
2022-10-08T04:58:34.753Z,12.40
2022-10-08T04:59:31.322Z,13.70
2022-10-08T05:00:27.955Z,9.40
2022-10-08T05:01:25.723Z,8.75
2022-10-08T05:02:22.505Z,9.63
2022-10-08T05:03:19.195Z,9.73
2022-10-08T05:04:15.893Z,8.57
2022-10-08T05:05:12.491Z,11.38
2022-10-08T05:06:10.104Z,9.48
2022-10-08T05:07:06.678Z,11.38
2022-10-08T05:08:05.340Z,10.52
2022-10-08T05:09:05.502Z,11.55
2022-10-08T05:10:02.060Z,11.23
2022-10-08T05:10:58.640Z,14.98
2022-10-08T05:11:55.265Z,7.25
2022-10-08T05:12:51.831Z,10.07
2022-10-08T05:13:55.970Z,9.82
2022-10-08T05:14:52.546Z,9.07
2022-10-08T05:15:49.373Z,11.23
2022-10-08T05:16:45.973Z,14.15
2022-10-08T05:17:42.530Z,16.85
2022-10-08T05:18:41.058Z,20.17
2022-10-08T05:19:37.673Z,13.20
2022-10-08T05:20:36.551Z,11.93
2022-10-08T05:21:33.248Z,17.67
2022-10-08T05:22:29.982Z,18.92
2022-10-08T05:23:26.533Z,20.45
2022-10-08T05:24:23.211Z,24.20
2022-10-08T05:25:19.766Z,14.90
2022-10-08T05:26:17.666Z,14.25
2022-10-08T05:27:14.284Z,14.05
2022-10-08T05:28:10.898Z,12.32
2022-10-08T05:29:07.672Z,20.20
2022-10-08T05:30:05.203Z,20.52
2022-10-08T05:31:02.117Z,11.20
2022-10-08T05:31:58.742Z,15.85
2022-10-08T05:32:55.305Z,15.43
2022-10-08T05:33:51.998Z,11.45
2022-10-08T05:34:48.585Z,15.55
2022-10-08T05:35:45.264Z,12.15
2022-10-08T05:36:41.958Z,14.13
2022-10-08T05:37:38.543Z,15.10
2022-10-08T05:38:35.708Z,11.90
2022-10-08T05:39:32.262Z,10.35
2022-10-08T05:40:29.689Z,12.43
2022-10-08T05:41:28.388Z,12.00
2022-10-08T05:42:24.929Z,14.40
2022-10-08T05:43:21.476Z,11.75
2022-10-08T05:44:18.135Z,20.83
2022-10-08T05:45:14.858Z,56.28
2022-10-08T05:46:12.495Z,69.72
2022-10-08T05:47:09.071Z,122.03
2022-10-08T05:48:05.624Z,145.43
2022-10-08T05:49:04.302Z,230.45
2022-10-08T05:50:00.970Z,140.85
2022-10-08T05:50:57.681Z,61.17
2022-10-08T05:51:54.296Z,471.70
2022-10-08T05:52:50.916Z,480.42
2022-10-08T05:53:50.269Z,151.82
2022-10-08T05:54:46.845Z,404.95
2022-10-08T05:55:43.386Z,479.92
2022-10-08T05:56:39.970Z,483.90
2022-10-08T05:57:36.530Z,697.55
2022-10-08T05:58:35.088Z,403.13
2022-10-08T05:59:31.718Z,107.15
2022-10-08T06:00:28.313Z,68.72
2022-10-08T06:01:31.286Z,81.50
2022-10-08T06:02:27.906Z,104.40
2022-10-08T06:03:24.648Z,48.42
2022-10-08T06:04:21.399Z,31.85
2022-10-08T06:05:18.027Z,14.93
2022-10-08T06:06:14.678Z,14.32
2022-10-08T06:07:11.324Z,13.93
2022-10-08T06:08:07.861Z,15.38
2022-10-08T06:09:06.021Z,21.13
2022-10-08T06:10:02.576Z,16.75
2022-10-08T06:10:59.725Z,10.85
2022-10-08T06:11:56.412Z,11.32
2022-10-08T06:12:53.008Z,12.35
2022-10-08T06:13:53.221Z,13.18
2022-10-08T06:14:50.011Z,13.38
2022-10-08T06:15:59.813Z,11.98
2022-10-08T06:16:56.477Z,12.32
2022-10-08T06:17:53.057Z,11.45
2022-10-08T06:18:49.869Z,9.82
2022-10-08T06:19:46.432Z,13.98
2022-10-08T06:20:43.018Z,10.32
2022-10-08T06:21:39.621Z,11.02
2022-10-08T06:22:36.183Z,9.43
2022-10-08T06:23:33.069Z,10.10
2022-10-08T06:24:29.731Z,8.68
2022-10-08T06:25:26.318Z,9.02
2022-10-08T06:26:26.225Z,9.48
2022-10-08T06:27:22.816Z,14.00
2022-10-08T06:28:19.415Z,10.77
2022-10-08T06:29:18.252Z,11.50
2022-10-08T06:30:15.115Z,8.25
2022-10-08T06:31:13.219Z,9.90
2022-10-08T06:32:09.832Z,10.38
2022-10-08T06:33:06.459Z,10.10
2022-10-08T06:34:04.651Z,12.43
2022-10-08T06:35:01.437Z,12.68
2022-10-08T06:36:03.765Z,12.77
2022-10-08T06:37:56.972Z,8.93
2022-10-08T06:38:59.520Z,9.90
2022-10-08T06:40:52.526Z,11.20
2022-10-08T06:41:49.099Z,11.88
2022-10-08T06:42:45.972Z,9.55
2022-10-08T06:43:43.013Z,9.07
2022-10-08T06:44:39.580Z,8.15
2022-10-08T06:45:39.999Z,9.35
2022-10-08T06:46:36.866Z,27.73
2022-10-08T06:47:33.612Z,42.33
2022-10-08T06:48:30.391Z,25.67
2022-10-08T06:49:27.232Z,14.25
2022-10-08T06:50:23.783Z,19.73
2022-10-08T06:51:20.406Z,14.05
2022-10-08T06:52:16.955Z,11.63
2022-10-08T06:53:13.622Z,12.68
2022-10-08T06:54:10.337Z,11.25
2022-10-08T06:55:07.282Z,18.23
2022-10-08T06:56:06.734Z,15.40
2022-10-08T06:57:03.333Z,11.93
2022-10-08T06:58:01.197Z,11.68
2022-10-08T06:58:58.023Z,14.38
2022-10-08T06:59:54.654Z,13.40
2022-10-08T07:01:07.775Z,8.77
2022-10-08T07:02:04.604Z,14.82
2022-10-08T07:03:01.467Z,11.15
2022-10-08T07:04:02.139Z,9.60
2022-10-08T07:04:58.778Z,12.15
2022-10-08T07:05:55.502Z,12.68
2022-10-08T07:06:52.071Z,13.93
2022-10-08T07:07:48.679Z,18.85
2022-10-08T07:08:45.861Z,19.70
2022-10-08T07:09:42.534Z,37.13
2022-10-08T07:10:39.090Z,24.90
2022-10-08T07:11:35.951Z,21.38
2022-10-08T07:12:32.918Z,13.40
2022-10-08T07:13:29.579Z,15.80
2022-10-08T07:14:26.138Z,22.33
2022-10-08T07:15:22.718Z,13.45
2022-10-08T07:16:21.753Z,19.95
2022-10-08T07:17:18.438Z,19.92
2022-10-08T07:18:16.148Z,13.98
2022-10-08T07:19:13.264Z,15.32
2022-10-08T07:20:10.043Z,17.42
2022-10-08T07:21:08.121Z,22.10
2022-10-08T07:22:04.674Z,13.20
2022-10-08T07:23:01.296Z,16.88
2022-10-08T07:24:00.700Z,14.05
2022-10-08T07:24:57.257Z,11.70
2022-10-08T07:26:04.577Z,11.18
2022-10-08T07:27:01.145Z,12.82
2022-10-08T07:27:57.693Z,11.82
2022-10-08T07:28:57.080Z,20.08
2022-10-08T07:29:53.631Z,11.02
2022-10-08T07:30:50.186Z,13.25
2022-10-08T07:31:46.779Z,17.17
2022-10-08T07:32:43.418Z,16.42
2022-10-08T07:33:40.884Z,35.83
2022-10-08T07:34:37.479Z,14.40
2022-10-08T07:35:34.023Z,17.65
2022-10-08T07:36:30.617Z,13.82
2022-10-08T07:37:27.200Z,15.68
2022-10-08T07:38:23.866Z,15.18
2022-10-08T07:39:20.508Z,19.42
2022-10-08T07:40:19.788Z,34.20
2022-10-08T07:41:16.392Z,13.70
2022-10-08T07:42:12.927Z,11.70
2022-10-08T07:43:09.648Z,10.63
2022-10-08T07:44:06.732Z,17.90
2022-10-08T07:45:03.832Z,14.60
2022-10-08T07:46:00.454Z,13.15
2022-10-08T07:46:57.046Z,9.80
2022-10-08T07:47:53.754Z,12.65
2022-10-08T07:48:51.030Z,16.75
2022-10-08T07:49:47.630Z,14.23
2022-10-08T07:50:44.229Z,9.95
2022-10-08T07:51:41.749Z,12.35
2022-10-08T07:52:38.366Z,34.88
2022-10-08T07:53:35.666Z,157.60
2022-10-08T07:54:32.320Z,218.38
2022-10-08T07:55:29.334Z,75.63
2022-10-08T07:56:26.107Z,29.10
2022-10-08T07:57:22.682Z,36.60
2022-10-08T07:58:19.298Z,31.55
2022-10-08T07:59:16.196Z,33.47
2022-10-08T08:00:13.245Z,31.23
2022-10-08T08:01:14.843Z,26.77
2022-10-08T08:02:11.528Z,29.25
2022-10-08T08:03:13.301Z,20.02
2022-10-08T08:04:11.561Z,17.75
2022-10-08T08:05:08.489Z,12.18
2022-10-08T08:06:13.434Z,11.65
2022-10-08T08:07:10.112Z,10.68
2022-10-08T08:08:06.703Z,11.07
2022-10-08T08:09:03.691Z,11.10
2022-10-08T08:10:00.253Z,13.50
2022-10-08T08:11:01.429Z,7.00
2022-10-08T08:11:58.045Z,13.20
2022-10-08T08:12:54.619Z,10.20
2022-10-08T08:13:52.320Z,10.15
2022-10-08T08:14:48.860Z,9.77
2022-10-08T08:15:45.444Z,13.65
2022-10-08T08:16:42.113Z,13.10
2022-10-08T08:17:39.011Z,9.38
2022-10-08T08:18:40.419Z,11.20
2022-10-08T08:19:40.262Z,12.55
2022-10-08T08:20:37.191Z,13.27
2022-10-08T08:21:38.568Z,10.48
2022-10-08T08:22:35.149Z,8.88
2022-10-08T08:23:37.156Z,9.57
2022-10-08T08:24:33.818Z,8.48
2022-10-08T08:25:30.377Z,10.93
2022-10-08T08:26:30.045Z,12.10
2022-10-08T08:27:26.911Z,9.18
2022-10-08T08:28:23.967Z,8.75
2022-10-08T08:29:20.596Z,9.30
2022-10-08T08:30:19.722Z,8.82
2022-10-08T08:31:24.222Z,9.85
2022-10-08T08:32:26.127Z,13.52
2022-10-08T08:33:24.862Z,10.90
2022-10-08T08:34:23.421Z,10.93
2022-10-08T08:35:20.002Z,10.05
2022-10-08T08:36:18.545Z,14.20
2022-10-08T08:37:15.255Z,15.07
2022-10-08T08:38:11.835Z,13.18
2022-10-08T08:39:13.943Z,24.38
2022-10-08T08:40:10.951Z,11.50
2022-10-08T08:41:33.920Z,9.02
2022-10-08T08:42:43.473Z,8.65
2022-10-08T08:43:40.127Z,11.57
2022-10-08T08:44:40.756Z,11.23
2022-10-08T08:45:53.366Z,8.43
2022-10-08T08:47:14.005Z,8.32
2022-10-08T08:48:24.213Z,7.57
2022-10-08T08:50:02.413Z,7.70
2022-10-08T08:50:59.649Z,16.83
2022-10-08T08:51:59.212Z,10.70
2022-10-08T08:52:56.733Z,8.40
2022-10-08T08:53:54.222Z,8.30
2022-10-08T08:54:53.353Z,11.90
2022-10-08T08:55:54.281Z,8.32
2022-10-08T08:56:52.671Z,12.80
2022-10-08T08:57:57.202Z,16.00
2022-10-08T08:59:14.421Z,9.13
2022-10-08T09:00:20.643Z,8.02
2022-10-08T09:01:44.607Z,9.20
2022-10-08T09:02:52.354Z,10.20
2022-10-08T09:03:54.921Z,8.70
2022-10-08T09:05:56.699Z,8.23
2022-10-08T09:06:54.422Z,8.30
2022-10-08T09:07:59.593Z,8.70
2022-10-08T09:09:01.201Z,16.67
2022-10-08T09:09:59.250Z,18.80
2022-10-08T09:11:02.800Z,9.32
2022-10-08T09:12:00.200Z,11.05
2022-10-08T09:12:57.967Z,8.25
2022-10-08T09:14:09.720Z,7.93
2022-10-08T09:15:18.004Z,9.65
2022-10-08T09:16:16.438Z,10.57
2022-10-08T09:17:17.255Z,18.33
2022-10-08T09:18:16.216Z,19.02
2022-10-08T09:19:12.841Z,25.13
2022-10-08T09:20:15.729Z,22.70
2022-10-08T09:21:12.383Z,9.25
2022-10-08T09:22:23.284Z,5.18
2022-10-08T09:23:22.596Z,17.60
2022-10-08T09:24:19.565Z,13.98
2022-10-08T09:25:25.194Z,10.27
2022-10-08T09:26:24.355Z,12.23
2022-10-08T09:27:21.029Z,11.82
2022-10-08T09:28:40.743Z,6.88
2022-10-08T09:29:37.614Z,13.57
2022-10-08T09:30:43.206Z,10.98
2022-10-08T09:31:39.934Z,6.65
2022-10-08T09:32:39.048Z,8.13
2022-10-08T09:33:35.655Z,8.00
2022-10-08T09:34:32.386Z,9.35
2022-10-08T09:35:31.921Z,9.90
2022-10-08T09:36:36.056Z,13.90
2022-10-08T09:37:32.729Z,8.43
2022-10-08T09:38:37.352Z,8.43
2022-10-08T09:39:37.497Z,5.72
2022-10-08T09:40:34.135Z,6.70
2022-10-08T09:41:30.908Z,8.57
2022-10-08T09:42:27.576Z,8.18
2022-10-08T09:43:24.766Z,13.75
2022-10-08T09:44:22.767Z,9.10
2022-10-08T09:45:34.021Z,6.65
2022-10-08T09:46:33.309Z,9.32
2022-10-08T09:47:33.469Z,10.00
2022-10-08T09:48:30.988Z,8.70
2022-10-08T09:49:31.370Z,5.70
2022-10-08T09:50:28.061Z,9.45
2022-10-08T09:51:24.661Z,12.18
2022-10-08T09:52:27.030Z,5.90
2022-10-08T09:53:27.262Z,9.65
2022-10-08T09:54:28.185Z,8.57
2022-10-08T09:55:35.224Z,6.05
2022-10-08T09:56:31.919Z,10.77
2022-10-08T09:57:30.189Z,7.68
2022-10-08T09:58:30.228Z,9.48
2022-10-08T09:59:36.030Z,7.32
2022-10-08T10:00:38.405Z,9.75
2022-10-08T10:01:35.056Z,4.38
2022-10-08T10:02:34.994Z,9.40
2022-10-08T10:03:32.832Z,6.55
2022-10-08T10:04:37.584Z,8.30
2022-10-08T10:05:36.164Z,6.57
2022-10-08T10:06:35.167Z,6.97
2022-10-08T10:07:41.819Z,9.70
2022-10-08T10:08:46.756Z,7.78
2022-10-08T10:09:56.488Z,7.38
2022-10-08T10:10:54.522Z,4.80
2022-10-08T10:11:56.540Z,10.02
2022-10-08T10:13:01.535Z,7.25
2022-10-08T10:14:02.865Z,8.02
2022-10-08T10:15:10.914Z,7.40
2022-10-08T10:16:23.449Z,6.10
2022-10-08T10:17:43.538Z,6.95
2022-10-08T10:18:51.641Z,6.60
2022-10-08T10:19:59.521Z,7.72
2022-10-08T10:21:19.182Z,6.47
2022-10-08T10:22:24.887Z,8.13
2022-10-08T10:23:29.055Z,10.13
2022-10-08T10:24:42.675Z,5.63
2022-10-08T10:25:39.224Z,4.85
2022-10-08T10:26:38.852Z,7.05
2022-10-08T10:27:42.262Z,6.55
2022-10-08T10:28:51.009Z,9.75
2022-10-08T10:30:17.469Z,4.65
2022-10-08T10:31:27.939Z,7.72
2022-10-08T10:32:32.294Z,12.10
2022-10-08T10:33:34.113Z,6.10
2022-10-08T10:34:35.227Z,10.07
2022-10-08T10:35:32.834Z,7.95
2022-10-08T10:36:36.919Z,6.72
2022-10-08T10:37:45.131Z,11.30
2022-10-08T10:38:50.350Z,8.50
2022-10-08T10:40:18.741Z,12.30
2022-10-08T10:42:01.818Z,4.57
2022-10-08T10:43:10.903Z,4.70
2022-10-08T10:44:13.215Z,3.47
2022-10-08T10:45:26.510Z,5.68
2022-10-08T10:46:41.373Z,7.50
2022-10-08T10:47:37.958Z,9.77
2022-10-08T10:48:34.649Z,4.80
2022-10-08T10:49:38.440Z,4.47
2022-10-08T10:50:42.769Z,4.88
2022-10-08T10:51:42.013Z,6.78
2022-10-08T10:52:47.505Z,5.88
2022-10-08T10:53:56.160Z,8.80
2022-10-08T10:55:05.275Z,5.15
2022-10-08T10:56:04.888Z,8.80
2022-10-08T10:57:09.041Z,6.30
2022-10-08T10:58:14.287Z,4.88
2022-10-08T10:59:38.671Z,7.05
2022-10-08T11:01:02.644Z,4.63
2022-10-08T11:02:27.048Z,4.70
2022-10-08T11:04:03.053Z,6.00
2022-10-08T11:05:14.858Z,5.43
2022-10-08T11:06:53.262Z,6.60
2022-10-08T11:08:10.126Z,5.05
2022-10-08T11:09:30.966Z,6.35
2022-10-08T11:10:39.754Z,7.97
2022-10-08T11:11:56.915Z,4.35
2022-10-08T11:13:41.411Z,3.65
2022-10-08T11:15:22.160Z,5.38
2022-10-08T11:16:36.287Z,7.60
2022-10-08T11:17:32.853Z,3.30
2022-10-08T11:18:53.012Z,2.38
2022-10-08T11:20:00.059Z,5.10
2022-10-08T11:21:30.658Z,4.93
2022-10-08T11:22:53.897Z,7.50
2022-10-08T11:24:12.309Z,4.57
2022-10-08T11:25:17.860Z,4.15
2022-10-08T11:26:38.967Z,4.60
2022-10-08T11:27:41.265Z,6.78
2022-10-08T11:28:46.716Z,7.90
2022-10-08T11:30:04.973Z,8.65
2022-10-08T11:31:20.364Z,4.00
2022-10-08T11:32:19.194Z,5.57
2022-10-08T11:33:17.393Z,4.45
2022-10-08T11:34:32.112Z,5.10
2022-10-08T11:35:35.776Z,5.05
2022-10-08T11:36:52.701Z,4.93
2022-10-08T11:38:08.660Z,4.75
2022-10-08T11:39:17.157Z,5.15
2022-10-08T11:40:32.591Z,3.75
2022-10-08T11:41:45.455Z,5.55
2022-10-08T11:43:02.418Z,3.85
2022-10-08T11:44:01.682Z,5.05
2022-10-08T11:45:22.908Z,6.15
2022-10-08T11:46:31.770Z,13.25
2022-10-08T11:47:41.678Z,7.38
2022-10-08T11:48:38.408Z,3.95
2022-10-08T11:49:38.093Z,6.25
2022-10-08T11:50:36.703Z,5.60
2022-10-08T11:51:37.363Z,5.10
2022-10-08T11:52:34.711Z,3.53
2022-10-08T11:53:31.410Z,3.22
2022-10-08T11:54:34.817Z,5.55
2022-10-08T11:55:33.489Z,3.83
2022-10-08T11:56:31.589Z,4.80
2022-10-08T11:58:05.989Z,5.97
2022-10-08T11:58:56.587Z,5.88
2022-10-08T11:59:53.147Z,6.30
2022-10-08T12:00:53.726Z,5.65
2022-10-08T12:02:02.606Z,5.43
2022-10-08T12:03:00.221Z,5.38
2022-10-08T12:04:09.851Z,3.35
2022-10-08T12:05:21.738Z,8.15
2022-10-08T12:06:32.925Z,7.10
2022-10-08T12:07:36.591Z,6.25
2022-10-08T12:08:54.570Z,10.38
2022-10-08T12:10:03.319Z,6.75
2022-10-08T12:11:31.859Z,5.43
2022-10-08T12:12:50.771Z,9.98
2022-10-08T12:14:16.943Z,10.18
2022-10-08T12:15:27.569Z,7.15
2022-10-08T12:16:56.172Z,5.03
2022-10-08T12:18:25.866Z,7.40
2022-10-08T12:19:35.267Z,4.47
2022-10-08T12:20:34.036Z,5.38
2022-10-08T12:21:30.636Z,4.45
2022-10-08T12:22:27.168Z,3.53
2022-10-08T12:23:23.736Z,5.82
2022-10-08T12:24:40.503Z,3.97
2022-10-08T12:25:41.750Z,8.25
2022-10-08T12:27:16.373Z,4.45
2022-10-08T12:28:35.379Z,4.22
2022-10-08T12:30:12.110Z,4.35
2022-10-08T12:31:39.957Z,4.43
2022-10-08T12:32:39.482Z,2.95
2022-10-08T12:33:36.610Z,5.03
2022-10-08T12:34:33.235Z,4.57
2022-10-08T12:35:59.000Z,3.90
2022-10-08T12:37:06.068Z,4.55
2022-10-08T12:38:17.527Z,5.65
2022-10-08T12:39:35.144Z,3.33
2022-10-08T12:40:41.234Z,7.93
2022-10-08T12:41:46.373Z,3.03
2022-10-08T12:42:43.698Z,9.32
2022-10-08T12:43:51.637Z,2.85
2022-10-08T12:45:11.803Z,5.90
2022-10-08T12:46:27.186Z,6.43
2022-10-08T12:47:42.086Z,6.85
2022-10-08T12:48:51.576Z,4.32
2022-10-08T12:50:05.791Z,6.43
2022-10-08T12:51:12.732Z,6.68
2022-10-08T12:52:13.233Z,3.08
2022-10-08T12:53:13.908Z,5.07
2022-10-08T12:54:25.340Z,4.20
2022-10-08T12:55:23.388Z,4.57
2022-10-08T12:56:28.076Z,3.25
2022-10-08T12:57:30.360Z,5.25
2022-10-08T12:58:31.746Z,4.45
2022-10-08T12:59:32.191Z,5.30
2022-10-08T13:00:33.058Z,4.72
2022-10-08T13:01:30.318Z,4.68
2022-10-08T13:02:42.126Z,4.53
2022-10-08T13:03:38.701Z,7.70
2022-10-08T13:04:35.721Z,4.05
2022-10-08T13:05:40.384Z,6.70
2022-10-08T13:06:37.145Z,3.63
2022-10-08T13:07:35.859Z,4.03
2022-10-08T13:08:35.168Z,7.63
2022-10-08T13:09:35.875Z,7.00
2022-10-08T13:10:32.486Z,2.53
2022-10-08T13:11:29.223Z,4.75
2022-10-08T13:12:26.020Z,9.95
2022-10-08T13:13:39.664Z,6.03
2022-10-08T13:14:39.462Z,4.70
2022-10-08T13:15:36.154Z,4.18
2022-10-08T13:16:46.500Z,5.35
2022-10-08T13:17:43.022Z,5.82
2022-10-08T13:18:42.481Z,6.15
2022-10-08T13:19:40.594Z,5.05
2022-10-08T13:20:37.204Z,5.55
2022-10-08T13:21:37.213Z,5.72
2022-10-08T13:22:33.841Z,3.15
2022-10-08T13:23:43.343Z,4.30
2022-10-08T13:24:42.909Z,4.85
2022-10-08T13:25:43.128Z,3.17
2022-10-08T13:26:50.609Z,4.28
2022-10-08T13:28:36.191Z,2.85
2022-10-08T13:29:37.665Z,4.05
2022-10-08T13:30:34.236Z,14.15
2022-10-08T13:31:34.257Z,4.65
2022-10-08T13:32:35.272Z,2.90
2022-10-08T13:33:34.669Z,4.22
2022-10-08T13:34:33.650Z,3.50